Time;durP1;ratioP1;P1;durP2;ratioP2;P2;SDS_P1;SDS_P2;PMS_P1;PMS_P2;Temp;Humidity;BMP_temperature;BMP_pressure;BME280_temperature;BME280_humidity;BME280_pressure;Samples;Min_cycle;Max_cycle;Signal;HPM_P1;HPM_P2
2022/03/29 00:01:27;;;;;;;24.17;16.35;;;;;;;5.83;70.84;100846.66;7394366;19;20031;-65
2022/03/29 00:03:55;;;;;;;24.85;16.05;;;;;;;5.79;70.73;100844.06;7394016;19;20388;-65
2022/03/29 00:06:24;;;;;;;25.65;17.33;;;;;;;5.76;70.75;100841.44;7394324;19;20018;-64
2022/03/29 00:08:55;;;;;;;28.40;17.67;;;;;;;5.71;71.21;100846.66;7399952;19;20066;-65
2022/03/29 00:11:24;;;;;;;27.50;17.48;;;;;;;5.65;71.27;100844.94;7399364;19;20036;-65
2022/03/29 00:13:52;;;;;;;24.77;16.95;;;;;;;5.60;71.33;100841.47;7398920;19;20042;-65
2022/03/29 00:16:20;;;;;;;25.75;16.85;;;;;;;5.54;71.81;100841.44;7398909;19;20026;-65
2022/03/29 00:18:48;;;;;;;25.33;16.63;;;;;;;5.49;71.83;100835.38;7398701;19;20021;-65
2022/03/29 00:21:16;;;;;;;26.13;17.55;;;;;;;5.45;71.86;100825.84;7401050;19;20451;-64
2022/03/29 00:23:44;;;;;;;23.88;16.80;;;;;;;5.41;71.89;100827.56;7401281;19;20019;-65
2022/03/29 00:26:16;;;;;;;28.52;17.98;;;;;;;5.38;72.05;100827.56;7401300;19;20027;-65
2022/03/29 00:28:44;;;;;;;27.58;17.48;;;;;;;5.35;71.56;100824.97;7398075;19;20371;-65
2022/03/29 00:31:13;;;;;;;28.48;18.70;;;;;;;5.30;71.80;100821.50;7398783;19;20014;-65
2022/03/29 00:33:41;;;;;;;30.27;17.95;;;;;;;5.29;71.86;100828.41;7400990;19;20059;-65
2022/03/29 00:36:09;;;;;;;28.60;18.10;;;;;;;5.26;72.45;100825.81;7397975;19;20501;-65
2022/03/29 00:38:37;;;;;;;26.92;18.00;;;;;;;5.21;72.15;100825.78;7398051;19;20019;-65
2022/03/29 00:41:06;;;;;;;28.73;18.30;;;;;;;5.17;72.38;100818.88;7398235;19;20035;-65
2022/03/29 00:43:37;;;;;;;26.48;17.63;;;;;;;5.14;72.23;100821.44;7398009;19;20023;-65
2022/03/29 00:46:05;;;;;;;29.55;17.25;;;;;;;5.11;72.20;100823.19;7398136;19;20032;-65
2022/03/29 00:48:33;;;;;;;27.95;18.17;;;;;;;5.08;72.50;100830.97;7398720;19;20481;-65
2022/03/29 00:51:02;;;;;;;29.05;17.42;;;;;;;5.05;72.32;100826.63;7398152;19;20378;-66
2022/03/29 00:53:31;;;;;;;26.77;17.40;;;;;;;5.04;72.21;100827.50;7397376;19;20020;-65
2022/03/29 00:56:00;;;;;;;24.48;17.10;;;;;;;4.95;72.56;100817.94;7397995;19;20018;-65
2022/03/29 00:58:28;;;;;;;27.30;18.33;;;;;;;4.95;72.24;100825.72;7399479;19;20018;-65
2022/03/29 01:01:01;;;;;;;28.23;18.73;;;;;;;4.92;73.25;100822.28;7400178;19;20038;-65
2022/03/29 01:03:30;;;;;;;29.95;20.38;;;;;;;4.87;72.72;100825.72;7397895;19;20042;-65
2022/03/29 01:05:58;;;;;;;28.35;18.92;;;;;;;4.84;72.87;100824.84;7400241;19;20079;-65
2022/03/29 01:08:27;;;;;;;32.28;20.10;;;;;;;4.81;72.84;100824.84;7398700;19;20031;-65
2022/03/29 01:10:56;;;;;;;29.77;18.38;;;;;;;4.78;73.62;100824.81;7398181;19;20078;-66
2022/03/29 01:13:24;;;;;;;35.08;19.70;;;;;;;4.74;73.95;100816.16;7398347;19;20481;-65
2022/03/29 01:15:53;;;;;;;36.30;20.38;;;;;;;4.72;73.83;100816.13;7399706;19;20178;-65
2022/03/29 01:18:26;;;;;;;28.08;19.45;;;;;;;4.69;74.26;100813.53;7396744;19;20018;-65
2022/03/29 01:20:57;;;;;;;29.88;20.67;;;;;;;4.65;74.54;100804.00;7399924;19;20074;-65
2022/03/29 01:23:28;;;;;;;33.72;21.23;;;;;;;4.64;74.14;100791.88;7399729;19;20017;-65
2022/03/29 01:25:56;;;;;;;34.20;22.17;;;;;;;4.63;74.55;100805.72;7399576;19;20031;-65
2022/03/29 01:28:25;;;;;;;34.22;20.45;;;;;;;4.59;75.15;100793.56;7398178;19;20109;-65
2022/03/29 01:30:55;;;;;;;34.72;20.92;;;;;;;4.58;75.16;100802.22;7396378;19;20429;-65
2022/03/29 01:33:24;;;;;;;31.25;19.52;;;;;;;4.55;74.82;100800.50;7399084;19;20015;-65
2022/03/29 01:35:55;;;;;;;33.25;20.75;;;;;;;4.55;75.46;100797.03;7396749;19;20022;-65
2022/03/29 01:38:23;;;;;;;33.17;21.10;;;;;;;4.56;75.60;100790.94;7398179;19;20019;-65
2022/03/29 01:40:54;;;;;;;33.88;21.08;;;;;;;4.56;76.00;100798.75;7398790;19;20026;-65
2022/03/29 01:43:22;;;;;;;36.35;21.60;;;;;;;4.56;75.64;100786.63;7398398;19;20502;-65
2022/03/29 01:45:50;;;;;;;33.38;20.80;;;;;;;4.58;75.43;100794.44;7398686;19;20026;-65
2022/03/29 01:48:18;;;;;;;30.58;19.80;;;;;;;4.61;75.59;100791.84;7397725;19;20022;-64
2022/03/29 01:50:48;;;;;;;31.60;20.40;;;;;;;4.63;75.45;100789.25;7396270;19;20036;-65
2022/03/29 01:53:24;;;;;;;32.40;21.38;;;;;;;4.65;77.00;100788.41;7396562;19;20581;-65
2022/03/29 01:55:56;;;;;;;32.35;19.83;;;;;;;4.67;76.44;100786.66;7396644;19;20032;-65
2022/03/29 01:58:25;;;;;;;31.35;20.63;;;;;;;4.69;76.93;100790.16;7396309;19;20014;-65
2022/03/29 02:00:53;;;;;;;34.97;20.88;;;;;;;4.72;76.67;100779.75;7396100;19;20014;-65
2022/03/29 02:03:22;;;;;;;36.25;20.00;;;;;;;4.75;77.20;100772.81;7397634;19;20474;-65
2022/03/29 02:05:50;;;;;;;33.10;20.70;;;;;;;4.78;77.16;100776.31;7395883;19;20018;-65
2022/03/29 02:08:19;;;;;;;32.20;21.00;;;;;;;4.79;77.09;100780.66;7395271;19;20485;-65
2022/03/29 02:10:47;;;;;;;32.88;19.52;;;;;;;4.84;77.72;100775.44;7396598;19;20025;-65
2022/03/29 02:13:18;;;;;;;31.60;18.92;;;;;;;4.86;77.22;100769.38;7397627;19;20018;-64
2022/03/29 02:15:46;;;;;;;31.08;19.08;;;;;;;4.89;77.29;100772.00;7396046;19;20022;-65
2022/03/29 02:18:14;;;;;;;32.70;19.77;;;;;;;4.93;76.93;100764.19;7395208;19;20022;-65
2022/03/29 02:20:43;;;;;;;33.63;19.80;;;;;;;4.97;76.64;100760.75;7396884;19;20015;-65
2022/03/29 02:23:14;;;;;;;31.38;19.00;;;;;;;5.01;77.03;100770.28;7397063;19;20023;-65
2022/03/29 02:25:45;;;;;;;31.40;18.55;;;;;;;5.02;77.35;100752.09;7397035;19;20045;-65
2022/03/29 02:28:14;;;;;;;28.10;18.13;;;;;;;5.06;77.24;100752.97;7395459;19;20019;-64
2022/03/29 02:30:46;;;;;;;27.85;18.65;;;;;;;5.09;77.36;100758.16;7396391;19;20014;-65
2022/03/29 02:33:15;;;;;;;26.73;18.23;;;;;;;5.10;77.32;100764.25;7397355;19;20026;-64
2022/03/29 02:35:44;;;;;;;29.10;18.23;;;;;;;5.12;77.87;100759.88;7396838;19;20018;-64
2022/03/29 02:38:13;;;;;;;30.63;18.33;;;;;;;5.12;77.20;100762.47;7395992;19;20022;-65
2022/03/29 02:40:42;;;;;;;27.08;17.38;;;;;;;5.12;77.25;100754.69;7394642;19;20474;-65
2022/03/29 02:43:10;;;;;;;30.40;19.33;;;;;;;5.14;77.94;100761.63;7395014;19;20081;-65
2022/03/29 02:45:38;;;;;;;29.98;18.60;;;;;;;5.12;78.76;100752.09;7394952;19;20018;-64
2022/03/29 02:48:10;;;;;;;30.13;18.23;;;;;;;5.11;78.05;100751.22;7396044;19;20022;-65
2022/03/29 02:50:39;;;;;;;27.83;18.30;;;;;;;5.10;79.08;100759.03;7396347;19;20364;-64
2022/03/29 02:53:08;;;;;;;31.80;19.92;;;;;;;5.07;79.00;100759.91;7394805;19;20031;-65
2022/03/29 02:55:36;;;;;;;31.58;19.70;;;;;;;5.06;78.65;100759.00;7396155;19;20082;-64
2022/03/29 02:58:05;;;;;;;32.72;20.27;;;;;;;5.05;78.69;100759.03;7395726;19;20027;-64
2022/03/29 03:00:33;;;;;;;35.13;22.05;;;;;;;5.04;78.30;100754.69;7394528;19;20025;-65
2022/03/29 03:03:03;;;;;;;29.50;18.88;;;;;;;5.03;78.40;100751.22;7396157;19;20039;-65
2022/03/29 03:05:34;;;;;;;34.92;19.88;;;;;;;5.00;80.42;100756.41;7394100;19;20026;-65
2022/03/29 03:08:02;;;;;;;30.13;19.00;;;;;;;4.98;78.73;100747.75;7394442;19;20014;-65
2022/03/29 03:10:31;;;;;;;30.73;20.48;;;;;;;4.96;79.44;100756.41;7394048;19;20041;-65
2022/03/29 03:13:00;;;;;;;31.70;20.10;;;;;;;4.93;80.22;100756.41;7395691;19;20017;-65
2022/03/29 03:15:29;;;;;;;29.15;19.80;;;;;;;4.89;78.78;100751.19;7395831;19;20053;-65
2022/03/29 03:17:58;;;;;;;31.25;18.70;;;;;;;4.88;79.35;100753.81;7394908;19;20026;-64
2022/03/29 03:20:26;;;;;;;30.35;19.92;;;;;;;4.88;79.61;100759.00;7393726;19;20018;-65
2022/03/29 03:22:57;;;;;;;30.73;20.27;;;;;;;4.88;78.87;100754.66;7393916;19;20023;-65
2022/03/29 03:25:25;;;;;;;34.10;21.27;;;;;;;4.92;78.44;100755.53;7395822;19;20111;-65
2022/03/29 03:27:53;;;;;;;31.30;20.40;;;;;;;4.94;78.90;100759.03;7394692;19;20019;-65
2022/03/29 03:30:22;;;;;;;31.27;20.80;;;;;;;4.92;78.92;100752.09;7393182;19;20032;-65
2022/03/29 03:32:53;;;;;;;34.35;20.52;;;;;;;4.90;78.37;100752.06;7395375;19;20427;-65
2022/03/29 03:35:21;;;;;;;34.38;20.92;;;;;;;4.89;78.61;100755.53;7396150;19;20023;-65
2022/03/29 03:37:50;;;;;;;31.05;20.95;;;;;;;4.87;78.89;100744.28;7394425;19;20035;-64
2022/03/29 03:40:21;;;;;;;39.63;22.50;;;;;;;4.86;78.69;100745.13;7393181;19;20015;-65
2022/03/29 03:42:49;;;;;;;33.85;22.17;;;;;;;4.85;79.41;100743.38;7394118;19;20015;-64
2022/03/29 03:45:30;;;;;;;34.97;22.63;;;;;;;4.84;79.63;100752.94;7392541;19;20372;-65
2022/03/29 03:47:58;;;;;;;37.33;22.85;;;;;;;4.81;79.80;100746.84;7393315;19;20022;-65
2022/03/29 03:50:27;;;;;;;36.55;23.23;;;;;;;4.79;78.69;100746.84;7392249;19;20022;-65
2022/03/29 03:52:55;;;;;;;37.72;23.73;;;;;;;4.78;79.16;100746.84;7391656;19;20015;-65
2022/03/29 03:55:26;;;;;;;38.72;23.73;;;;;;;4.78;78.61;100750.31;7391722;19;20019;-66
2022/03/29 03:57:54;;;;;;;35.97;23.58;;;;;;;4.79;79.61;100748.56;7392622;19;20035;-65
2022/03/29 04:00:24;;;;;;;39.20;23.70;;;;;;;4.76;79.06;100741.63;7392239;19;20097;-65
2022/03/29 04:02:53;;;;;;;40.60;24.08;;;;;;;4.78;79.10;100737.31;7392173;19;20074;-65
2022/03/29 04:05:22;;;;;;;38.60;24.85;;;;;;;4.79;78.76;100728.66;7394017;19;20022;-65
2022/03/29 04:07:50;;;;;;;38.67;24.98;;;;;;;4.82;79.58;100727.78;7393582;19;20043;-65
2022/03/29 04:10:18;;;;;;;42.95;23.52;;;;;;;4.83;79.62;100729.53;7393901;19;20038;-65
2022/03/29 04:12:49;;;;;;;37.70;23.73;;;;;;;4.82;79.47;100726.06;7391683;19;20031;-65
2022/03/29 04:15:17;;;;;;;37.55;23.98;;;;;;;4.82;79.51;100723.44;7391797;19;20022;-65
2022/03/29 04:17:45;;;;;;;41.67;24.27;;;;;;;4.82;78.89;100722.59;7392471;19;20036;-65
2022/03/29 04:20:13;;;;;;;38.28;25.27;;;;;;;4.83;78.86;100725.19;7392603;19;20477;-66
2022/03/29 04:22:41;;;;;;;38.15;23.58;;;;;;;4.84;78.97;100728.66;7392811;19;20478;-64
2022/03/29 04:25:11;;;;;;;42.38;25.83;;;;;;;4.86;78.68;100724.34;7391102;19;20023;-64
2022/03/29 04:27:39;;;;;;;37.83;22.85;;;;;;;4.87;78.84;100716.53;7390040;19;20494;-63
2022/03/29 04:30:12;;;;;;;41.85;24.52;;;;;;;4.89;78.92;100714.81;7391367;19;20035;-64
2022/03/29 04:32:41;;;;;;;37.88;24.00;;;;;;;4.91;78.83;100717.41;7390995;19;20018;-66
2022/03/29 04:35:10;;;;;;;38.92;24.13;;;;;;;4.89;79.14;100720.00;7390964;19;20018;-65
2022/03/29 04:37:38;;;;;;;41.88;26.10;;;;;;;4.89;79.09;100712.22;7392872;19;20039;-64
2022/03/29 04:40:09;;;;;;;40.97;24.17;;;;;;;4.89;79.00;100711.31;7390660;19;20484;-64
2022/03/29 04:42:44;;;;;;;45.65;26.35;;;;;;;4.89;80.27;100708.72;7390789;19;20028;-64
2022/03/29 04:45:15;;;;;;;41.25;26.65;;;;;;;4.90;79.66;100700.06;7391431;19;20023;-69
2022/03/29 04:47:44;;;;;;;45.58;27.10;;;;;;;4.91;79.58;100696.59;7392976;19;20027;-65
2022/03/29 04:50:13;;;;;;;49.58;28.98;;;;;;;4.89;79.51;100704.41;7392612;19;20023;-65
2022/03/29 04:52:44;;;;;;;45.60;27.30;;;;;;;4.89;80.41;100688.81;7390474;19;20015;-67
2022/03/29 04:55:13;;;;;;;47.90;27.65;;;;;;;4.88;79.51;100681.88;7396215;19;20489;-66
2022/03/29 04:57:41;;;;;;;41.38;26.60;;;;;;;4.91;78.88;100691.41;7398389;19;20023;-66
2022/03/29 05:00:12;;;;;;;43.45;26.50;;;;;;;4.94;79.30;100687.94;7398759;19;20023;-66
2022/03/29 05:02:43;;;;;;;47.20;28.05;;;;;;;4.94;79.47;100691.44;7399308;19;20018;-65
2022/03/29 05:05:13;;;;;;;50.45;28.80;;;;;;;4.90;79.22;100676.66;7395674;19;20022;-65
2022/03/29 05:07:42;;;;;;;46.28;27.98;;;;;;;4.95;79.54;100690.53;7396621;19;20018;-60
2022/03/29 05:10:12;;;;;;;43.10;27.65;;;;;;;4.97;79.33;100693.16;7395063;19;20031;-64
2022/03/29 05:12:41;;;;;;;44.72;27.40;;;;;;;4.98;79.18;100695.75;7396640;19;20054;-66
2022/03/29 05:15:10;;;;;;;46.58;27.70;;;;;;;4.99;78.91;100692.28;7395812;19;20079;-66
2022/03/29 05:17:38;;;;;;;42.47;25.10;;;;;;;4.98;79.45;100695.75;7397930;19;20015;-66
2022/03/29 05:20:11;;;;;;;45.95;28.02;;;;;;;4.99;79.26;100692.28;7395004;19;20038;-65
2022/03/29 05:22:45;;;;;;;43.40;26.25;;;;;;;5.00;79.79;100695.75;7398105;19;20030;-67
2022/03/29 05:25:15;;;;;;;40.38;25.80;;;;;;;4.99;79.90;100694.00;7395247;19;20015;-67
2022/03/29 05:27:43;;;;;;;42.72;25.70;;;;;;;4.99;79.82;100704.41;7395327;19;20044;-66
2022/03/29 05:30:13;;;;;;;39.42;25.50;;;;;;;4.98;79.46;100693.16;7395523;19;20022;-70
2022/03/29 05:32:41;;;;;;;43.67;25.55;;;;;;;5.01;79.63;100695.75;7395916;19;20018;-71
2022/03/29 05:35:14;;;;;;;43.33;26.20;;;;;;;5.04;79.68;100689.66;7397338;19;20489;-65
2022/03/29 05:37:44;;;;;;;38.47;24.52;;;;;;;5.06;79.22;100691.41;7397963;19;20395;-64
2022/03/29 05:40:13;;;;;;;42.70;25.50;;;;;;;5.06;79.25;100694.00;7397902;19;20022;-66
2022/03/29 05:42:42;;;;;;;43.17;25.65;;;;;;;5.09;79.21;100692.28;7398625;19;20026;-66
2022/03/29 05:45:13;;;;;;;40.17;25.77;;;;;;;5.10;79.05;100699.22;7395844;19;20485;-65
2022/03/29 05:50:26;;;;;;;39.72;23.98;;;;;;;5.11;78.83;100701.81;7398667;19;20091;-65
2022/03/29 05:52:54;;;;;;;38.83;24.63;;;;;;;5.13;79.04;100704.41;7396062;19;20031;-66
2022/03/29 05:55:23;;;;;;;42.80;25.85;;;;;;;5.13;78.95;100700.09;7398047;19;20014;-66
2022/03/29 05:57:52;;;;;;;43.38;24.98;;;;;;;5.14;78.72;100706.16;7395502;19;20040;-66
2022/03/29 06:00:23;;;;;;;40.97;23.48;;;;;;;5.15;78.97;100707.88;7397802;19;20042;-66
2022/03/29 06:02:51;;;;;;;36.72;23.13;;;;;;;5.17;78.65;100706.16;7397366;19;20050;-66
2022/03/29 06:05:20;;;;;;;41.05;23.40;;;;;;;5.18;78.75;100700.97;7395281;19;20014;-66
2022/03/29 06:07:50;;;;;;;37.45;23.10;;;;;;;5.19;78.74;100700.09;7396792;19;20018;-66
2022/03/29 06:10:19;;;;;;;39.10;24.42;;;;;;;5.22;78.32;100701.81;7395614;19;20036;-65
2022/03/29 06:12:48;;;;;;;38.45;22.65;;;;;;;5.28;78.53;100711.34;7396059;19;20035;-65
2022/03/29 06:15:17;;;;;;;45.80;23.52;;;;;;;5.27;78.14;100699.19;7394679;19;20032;-64
2022/03/29 06:17:45;;;;;;;40.78;23.48;;;;;;;5.30;78.15;100707.03;7396389;19;20014;-65
2022/03/29 06:20:14;;;;;;;43.15;24.23;;;;;;;5.31;78.46;100707.00;7396532;19;20423;-65
2022/03/29 06:22:44;;;;;;;43.83;23.88;;;;;;;5.29;78.39;100706.13;7396533;19;20470;-65
2022/03/29 06:25:15;;;;;;;43.78;23.90;;;;;;;5.32;78.55;100706.16;7396131;19;20553;-65
2022/03/29 06:27:44;;;;;;;39.85;22.55;;;;;;;5.32;78.51;100713.97;7396619;19;20019;-66
2022/03/29 06:30:13;;;;;;;37.38;23.67;;;;;;;5.32;78.55;100711.34;7394919;19;20018;-66
2022/03/29 06:32:49;;;;;;;39.58;23.90;;;;;;;5.33;78.38;100714.81;7395444;19;20018;-68
2022/03/29 06:35:21;;;;;;;36.63;23.45;;;;;;;5.33;78.44;100709.59;7394409;19;20019;-64
2022/03/29 06:37:50;;;;;;;37.17;23.95;;;;;;;5.34;78.39;100709.59;7394450;19;20022;-66
2022/03/29 06:40:21;;;;;;;40.70;24.33;;;;;;;5.36;78.34;100712.22;7394572;19;20032;-65
2022/03/29 06:42:50;;;;;;;41.67;24.05;;;;;;;5.38;78.20;100707.88;7394936;19;20046;-65
2022/03/29 06:45:18;;;;;;;38.75;23.70;;;;;;;5.39;77.96;100707.84;7396389;19;20026;-66
2022/03/29 06:47:47;;;;;;;40.95;25.58;;;;;;;5.41;78.40;100707.00;7394529;19;20027;-66
2022/03/29 06:50:16;;;;;;;38.45;23.15;;;;;;;5.42;77.91;100708.75;7394004;19;20588;-66
2022/03/29 06:52:47;;;;;;;40.15;24.45;;;;;;;5.43;77.97;100711.31;7393124;19;20356;-64
2022/03/29 06:55:18;;;;;;;39.78;24.52;;;;;;;5.46;77.74;100710.47;7394504;19;20418;-65
2022/03/29 06:57:48;;;;;;;37.25;24.13;;;;;;;5.47;77.67;100700.06;7395360;19;20034;-65
2022/03/29 07:00:17;;;;;;;44.67;24.67;;;;;;;5.52;77.50;100703.53;7396492;19;20098;-66
2022/03/29 07:02:46;;;;;;;43.08;25.85;;;;;;;5.55;77.18;100705.25;7395894;19;20035;-66
2022/03/29 07:05:14;;;;;;;42.33;26.60;;;;;;;5.58;77.00;100709.59;7395505;19;20025;-67
2022/03/29 07:07:43;;;;;;;40.60;25.55;;;;;;;5.59;76.80;100712.19;7395546;19;20018;-66
2022/03/29 07:12:58;;;;;;;41.42;25.58;;;;;;;5.65;75.85;100693.97;7394566;19;20007;-67
2022/03/29 07:15:26;;;;;;;46.45;25.75;;;;;;;5.71;75.70;100709.56;7394002;19;20042;-65
2022/03/29 07:17:55;;;;;;;40.22;24.98;;;;;;;5.73;75.44;100711.31;7392567;19;20024;-65
2022/03/29 07:20:24;;;;;;;41.42;24.67;;;;;;;5.71;74.75;100709.56;7394760;19;20031;-66
2022/03/29 07:22:53;;;;;;;38.80;24.67;;;;;;;5.75;74.78;100701.72;7395119;19;20031;-66
2022/03/29 07:25:25;;;;;;;45.05;26.98;;;;;;;5.76;74.64;100699.13;7395399;19;20031;-66
2022/03/29 07:27:56;;;;;;;37.03;23.65;;;;;;;5.81;74.50;100693.91;7394976;19;20014;-66
2022/03/29 07:30:24;;;;;;;37.00;23.83;;;;;;;5.83;74.14;100692.19;7394905;19;20018;-64
2022/03/29 07:32:55;;;;;;;36.78;23.15;;;;;;;5.86;73.64;100699.97;7393625;19;20022;-66
2022/03/29 07:35:25;;;;;;;43.53;25.13;;;;;;;5.89;73.90;100686.94;7392309;19;20022;-64
2022/03/29 07:37:53;;;;;;;39.97;24.45;;;;;;;5.93;73.74;100680.84;7394206;19;20077;-65
2022/03/29 07:40:24;;;;;;;39.53;24.15;;;;;;;6.01;73.62;100679.09;7392693;19;20414;-67
2022/03/29 07:42:53;;;;;;;35.30;21.52;;;;;;;6.09;73.46;100681.72;7395172;19;20036;-66
2022/03/29 07:45:24;;;;;;;34.55;20.77;;;;;;;6.13;73.38;100679.94;7394324;19;20022;-65
2022/03/29 07:47:56;;;;;;;35.28;21.38;;;;;;;6.18;73.23;100678.19;7394277;19;20367;-65
2022/03/29 07:50:26;;;;;;;36.25;22.17;;;;;;;6.25;72.80;100677.28;7394651;19;20021;-66
2022/03/29 07:52:57;;;;;;;34.40;20.48;;;;;;;6.28;72.85;100682.47;7391917;19;20034;-65
2022/03/29 07:55:26;;;;;;;40.10;20.58;;;;;;;6.25;72.35;100671.22;7394878;19;20033;-64
2022/03/29 07:57:54;;;;;;;32.83;19.98;;;;;;;6.28;72.54;100673.78;7392365;19;20045;-65
2022/03/29 08:00:35;;;;;;;38.90;21.40;;;;;;;6.30;72.13;100685.06;7394113;19;20035;-64
2022/03/29 08:03:05;;;;;;;36.90;21.17;;;;;;;6.33;72.29;100674.63;7394317;19;20053;-64
2022/03/29 08:05:34;;;;;;;31.40;20.92;;;;;;;6.36;72.13;100672.88;7394020;19;20022;-64
2022/03/29 08:08:02;;;;;;;33.92;20.80;;;;;;;6.36;71.95;100664.19;7391762;19;20465;-64
2022/03/29 08:10:32;;;;;;;35.42;20.17;;;;;;;6.41;71.87;100667.66;7394237;19;20035;-69
2022/03/29 08:13:03;;;;;;;39.97;19.80;;;;;;;6.45;71.57;100673.72;7393024;19;20018;-64
2022/03/29 08:15:34;;;;;;;31.95;19.95;;;;;;;6.40;70.91;100663.28;7393712;19;20116;-65
2022/03/29 08:18:02;;;;;;;32.13;18.88;;;;;;;6.45;71.61;100663.28;7392942;19;20019;-64
2022/03/29 08:20:31;;;;;;;34.55;20.10;;;;;;;6.47;71.25;100661.50;7391275;19;20026;-64
2022/03/29 08:23:00;;;;;;;32.22;20.02;;;;;;;6.48;71.23;100665.84;7391503;19;20026;-64
2022/03/29 08:25:29;;;;;;;31.98;19.05;;;;;;;6.48;70.70;100677.16;7393395;19;20046;-64
2022/03/29 08:27:59;;;;;;;36.63;19.75;;;;;;;6.49;70.74;100657.16;7394823;19;20019;-65
2022/03/29 08:30:29;;;;;;;32.97;19.60;;;;;;;6.51;70.06;100664.09;7400489;19;20018;-65
2022/03/29 08:33:02;;;;;;;33.17;19.10;;;;;;;6.54;70.10;100665.81;7398129;19;20010;-65
2022/03/29 08:35:30;;;;;;;32.17;20.73;;;;;;;6.59;70.41;100660.59;7398305;19;20018;-62
2022/03/29 08:37:58;;;;;;;28.52;19.00;;;;;;;6.62;70.13;100653.63;7397608;19;20023;-63
2022/03/29 08:40:28;;;;;;;37.17;19.58;;;;;;;6.64;70.06;100653.59;7397657;19;20018;-63
2022/03/29 08:42:58;;;;;;;29.10;18.88;;;;;;;6.65;70.01;100653.59;7397787;19;20022;-65
2022/03/29 08:45:29;;;;;;;34.50;20.67;;;;;;;6.68;70.04;100652.69;7398387;19;20024;-64
2022/03/29 08:48:07;;;;;;;33.35;19.98;;;;;;;6.72;69.65;100654.38;7398139;19;20019;-64
2022/03/29 08:50:38;;;;;;;32.03;19.20;;;;;;;6.76;69.63;100650.03;7399460;19;20023;-69
2022/03/29 08:53:07;;;;;;;33.58;19.55;;;;;;;6.79;68.90;100644.81;7398848;19;20014;-65
2022/03/29 08:55:41;;;;;;;30.15;19.17;;;;;;;6.81;68.78;100650.84;7399819;19;20506;-65
2022/03/29 08:58:09;;;;;;;29.73;17.33;;;;;;;6.82;68.62;100648.25;7399410;19;20038;-66
2022/03/29 09:00:37;;;;;;;27.80;17.60;;;;;;;6.82;68.05;100660.41;7399674;19;20014;-65
2022/03/29 09:03:09;;;;;;;31.38;19.67;;;;;;;6.81;67.77;100651.75;7399337;19;20380;-66
2022/03/29 09:05:37;;;;;;;32.75;18.35;;;;;;;6.84;68.19;100646.47;7400183;19;20019;-63
2022/03/29 09:08:09;;;;;;;31.63;19.13;;;;;;;6.90;67.54;100644.69;7399476;19;20022;-64
2022/03/29 09:10:50;;;;;;;31.00;19.20;;;;;;;6.96;67.04;100648.16;7399558;19;20438;-65
2022/03/29 09:13:20;;;;;;;31.65;17.40;;;;;;;7.01;66.07;100643.75;7396605;19;20351;-67
2022/03/29 09:15:49;;;;;;;33.28;18.75;;;;;;;7.06;66.80;100635.88;7399498;19;20035;-65
2022/03/29 09:18:20;;;;;;;29.70;18.67;;;;;;;7.11;66.10;100628.00;7396639;19;20022;-63
2022/03/29 09:20:49;;;;;;;32.55;18.48;;;;;;;7.16;65.91;100639.25;7399161;19;20018;-62
2022/03/29 09:23:20;;;;;;;30.85;18.73;;;;;;;7.17;65.81;100634.03;7395579;19;20039;-64
2022/03/29 09:25:49;;;;;;;31.80;18.17;;;;;;;7.19;64.86;100631.41;7396923;19;20015;-64
2022/03/29 09:28:21;;;;;;;27.08;17.17;;;;;;;7.22;65.15;100631.38;7396257;19;20031;-65
2022/03/29 09:30:51;;;;;;;31.77;18.63;;;;;;;7.28;64.85;100633.03;7398542;19;20018;-67
2022/03/29 09:33:30;;;;;;;29.25;18.20;;;;;;;7.34;64.26;100636.47;7395946;19;20018;-63
2022/03/29 09:36:02;;;;;;;25.23;15.90;;;;;;;7.40;63.57;100625.09;7395978;19;20019;-65
2022/03/29 09:38:34;;;;;;;30.55;16.30;;;;;;;7.47;63.56;100621.56;7396332;19;20018;-64
2022/03/29 09:41:04;;;;;;;25.92;15.55;;;;;;;7.55;63.84;100624.06;7395951;19;20010;-65
2022/03/29 09:43:36;;;;;;;29.38;16.08;;;;;;;7.60;62.64;100626.63;7396684;19;20019;-64
2022/03/29 09:46:05;;;;;;;28.70;15.85;;;;;;;7.69;62.94;100615.22;7396360;19;20054;-63
2022/03/29 09:48:38;;;;;;;26.67;15.70;;;;;;;7.76;61.59;100606.41;7397028;19;20022;-61
2022/03/29 09:51:21;;;;;;;31.50;18.95;;;;;;;7.80;61.70;100614.22;7396483;19;20351;-64
2022/03/29 09:53:52;;;;;;;25.05;15.77;;;;;;;7.80;62.01;100615.97;7395890;19;20022;-62
2022/03/29 09:56:24;;;;;;;24.60;16.67;;;;;;;7.81;62.50;100604.63;7395418;19;20472;-64
2022/03/29 09:59:08;;;;;;;25.30;15.82;;;;;;;7.87;62.72;100604.53;7395974;19;20011;-64
2022/03/29 10:01:49;;;;;;;26.13;15.75;;;;;;;7.93;62.50;100601.84;7398294;19;20082;-63
2022/03/29 10:04:21;;;;;;;24.02;15.02;;;;;;;7.99;62.14;100604.38;7395944;19;20015;-65
2022/03/29 10:06:52;;;;;;;24.38;15.65;;;;;;;8.07;62.40;100603.41;7395392;19;20018;-65
2022/03/29 10:09:26;;;;;;;26.48;15.88;;;;;;;8.05;61.08;100615.63;7395904;19;20015;-65
2022/03/29 10:11:55;;;;;;;;;;;;;;;8.01;59.78;100600.88;7396893;19;20014;-66
2022/03/29 10:14:25;;;;;;;22.60;13.88;;;;;;;8.04;62.18;100600.84;7395203;19;19931;-65
2022/03/29 10:16:55;;;;;;;23.05;13.98;;;;;;;8.10;61.04;100591.19;7395532;19;20022;-64
2022/03/29 10:19:26;;;;;;;23.55;14.52;;;;;;;8.15;59.69;100585.88;7395049;19;20018;-65
2022/03/29 10:21:55;;;;;;;22.77;12.77;;;;;;;8.15;59.04;100589.38;7397793;19;20015;-66
2022/03/29 10:24:23;;;;;;;21.88;12.93;;;;;;;8.16;59.96;100579.75;7396616;19;20014;-65
2022/03/29 10:26:55;;;;;;;26.80;13.18;;;;;;;8.16;59.33;100587.59;7396725;19;20019;-66
2022/03/29 10:29:26;;;;;;;20.67;12.57;;;;;;;8.19;59.32;100579.75;7394502;19;20023;-64
2022/03/29 10:31:55;;;;;;;21.42;13.07;;;;;;;8.19;59.24;100561.44;7394235;19;20035;-65
2022/03/29 10:34:27;;;;;;;22.75;14.05;;;;;;;8.21;59.27;100567.50;7393859;19;20371;-63
2022/03/29 10:37:14;;;;;;;22.38;13.85;;;;;;;8.24;58.84;100569.19;7395236;19;20037;-64
2022/03/29 10:39:52;;;;;;;27.02;15.52;;;;;;;8.28;59.59;100560.44;7394769;19;20015;-64
2022/03/29 10:42:32;;;;;;;27.17;14.80;;;;;;;8.29;58.65;100556.91;7396101;19;20524;-64
2022/03/29 10:45:03;;;;;;;22.60;14.60;;;;;;;8.37;59.51;100557.69;7394809;19;20014;-64
2022/03/29 10:47:32;;;;;;;22.58;13.93;;;;;;;8.50;59.28;100554.91;7396670;19;20023;-63
2022/03/29 10:50:07;;;;;;;26.52;14.70;;;;;;;8.57;58.61;100549.53;7393810;19;20022;-65
2022/03/29 10:52:43;;;;;;;22.23;13.55;;;;;;;8.60;58.27;100544.25;7395441;19;20045;-65
2022/03/29 10:55:28;;;;;;;24.02;14.40;;;;;;;8.63;58.19;100535.50;7393664;19;20010;-65
2022/03/29 10:58:10;;;;;;;19.08;13.75;;;;;;;8.68;57.06;100551.13;7395916;19;20014;-65
2022/03/29 11:00:40;;;;;;;21.90;13.65;;;;;;;8.70;58.45;100542.34;7395596;19;20091;-64
2022/03/29 11:03:13;;;;;;;25.02;14.38;;;;;;;8.72;57.41;100544.94;7394074;19;20028;-65
2022/03/29 11:06:12;;;;;;;24.67;14.93;;;;;;;8.75;57.68;100539.66;7395074;19;20010;-65
2022/03/29 11:08:42;;;;;;;24.15;14.13;;;;;;;8.80;58.33;100532.59;7395732;19;20157;-66
2022/03/29 11:11:44;;;;;;;20.17;13.18;;;;;;;8.86;55.61;100539.47;7394898;19;20078;-65
2022/03/29 11:14:39;;;;;;;22.17;12.77;;;;;;;8.90;56.17;100542.00;7392389;19;20019;-65
2022/03/29 11:17:43;;;;;;;21.65;13.63;;;;;;;8.93;56.41;100531.50;7390762;19;20125;-63
2022/03/29 11:20:34;;;;;;;21.30;14.30;;;;;;;9.00;56.39;100523.50;7392267;19;20031;-66
2022/03/29 11:23:04;;;;;;;24.17;13.65;;;;;;;9.07;56.80;100520.78;7391703;19;20023;-67
2022/03/29 11:25:39;;;;;;;24.65;13.88;;;;;;;9.12;55.95;100521.53;7393656;19;20023;-67
2022/03/29 11:28:12;;;;;;;19.88;12.57;;;;;;;9.10;54.80;100512.00;7392385;19;20035;-66
2022/03/29 11:30:41;;;;;;;22.33;14.32;;;;;;;9.10;56.40;100501.53;7394204;19;20060;-66
2022/03/29 11:33:11;;;;;;;22.50;14.25;;;;;;;9.19;55.71;100500.50;7392014;19;20035;-66
2022/03/29 11:35:41;;;;;;;21.77;13.40;;;;;;;9.28;56.07;100505.53;7391724;19;20015;-65
2022/03/29 11:38:11;;;;;;;20.15;14.13;;;;;;;9.40;55.87;100507.91;7393294;19;20014;-66